Data for 05/30/2013

Time Sea-Level Adjusted Pressure Absolute Pressure Temperature Relative Humidity Dew Point   
(mb) (inHg) (mb) (inHg) (C) (F) (%) (C) (F)
00:05 1011 29.85 840 24.81 8.8 47.9 81 5.7 42.3
00:10 1011 29.85 840 24.81 8.8 47.8 81 5.7 42.3
00:15 1011 29.85 840 24.81 8.7 47.7 82 5.8 42.4
00:20 1011 29.85 840 24.81 8.8 47.8 81 5.7 42.3
00:25 1011 29.85 840 24.81 8.8 47.9 80 5.6 42.1
00:30 1011 29.85 840 24.81 8.8 47.8 80 5.5 42
00:35 1011 29.85 840 24.81 8.8 47.9 80 5.6 42.1
00:40 1011 29.85 840 24.81 8.8 47.8 80 5.5 41.8
00:45 1011 29.85 840 24.81 8.8 47.8 80 5.6 42.1
00:50 1011 29.85 840 24.81 8.7 47.7 81 5.6 42.1
00:55 1011 29.85 840 24.81 8.6 47.5 80 5.4 41.8
01:00 1011 29.85 840 24.81 8.4 47.2 80 5.3 41.5
01:05 1011 29.85 840 24.81 8.4 47.1 80 5.2 41.4
01:10 1011 29.85 840 24.81 8.3 46.9 81 5.2 41.3
01:15 1011 29.85 840 24.81 8.2 46.8 80 5 41.1
01:20 1011 29.85 840 24.81 8.1 46.6 80 4.9 40.8
01:25 1011 29.85 840 24.81 8 46.4 79 4.6 40.2
01:30 1011 29.85 840 24.81 7.9 46.1 80 4.7 40.4
01:35 1011 29.85 840 24.81 7.8 46 81 4.7 40.4
01:40 1011 29.85 840 24.81 7.7 45.8 80 4.5 40.2
01:45 1011 29.85 840 24.81 7.6 45.7 81 4.5 40.1
01:50 1011 29.85 840 24.81 7.6 45.7 81 4.6 40.2
01:55 1011 29.85 840 24.81 7.5 45.6 81 4.5 40.2
02:00 1011 29.85 840 24.81 7.4 45.4 82 4.5 40.2
02:05 1011 29.85 840 24.81 7.4 45.2 82 4.5 40.1
02:10 1011 29.85 840 24.81 7.2 45 83 4.6 40.2
02:15 1011 29.85 840 24.81 7.1 44.8 84 4.6 40.3
02:20 1011 29.85 840 24.81 7 44.6 85 4.6 40.2
02:25 1011 29.85 841 24.83 6.9 44.4 86 4.7 40.5
02:30 1011 29.85 841 24.83 6.9 44.4 86 4.8 40.6
02:35 1011 29.85 841 24.83 6.8 44.3 87 4.8 40.6
02:40 1011 29.85 841 24.83 6.8 44.3 86 4.7 40.4
02:45 1011 29.85 841 24.83 6.8 44.3 86 4.6 40.2
02:50 1011 29.85 841 24.83 6.8 44.2 85 4.4 39.9
02:55 1011 29.85 841 24.83 6.8 44.2 85 4.5 40.1
03:00 1011 29.85 841 24.83 6.8 44.2 85 4.5 40
03:05 1011 29.85 841 24.83 6.7 44.1 85 4.3 39.8
03:10 1011 29.85 841 24.83 6.7 44.1 84 4.2 39.6
03:15 1011 29.85 841 24.83 6.7 44.1 84 4.2 39.5
03:20 1011 29.85 841 24.83 6.8 44.2 82 4 39.2
03:25 1011 29.85 841 24.83 6.8 44.3 81 3.8 38.9
03:30 1012 29.88 841 24.83 6.9 44.4 81 3.8 38.8
03:35 1012 29.88 841 24.83 6.9 44.4 78 3.3 38
03:40 1012 29.88 841 24.83 7 44.5 78 3.4 38.2
03:45 1012 29.88 841 24.83 7 44.6 77 3.2 37.8
03:50 1012 29.88 841 24.83 7.1 44.7 76 3.2 37.7
03:55 1012 29.88 841 24.83 7.1 44.7 78 3.5 38.2
04:00 1012 29.88 841 24.83 6.9 44.5 78 3.4 38.1
04:05 1012 29.88 841 24.83 6.9 44.4 77 3.2 37.8
04:10 1012 29.88 841 24.83 6.8 44.3 78 3.3 37.9
04:15 1012 29.88 841 24.83 6.8 44.3 78 3.2 37.8
04:20 1012 29.88 841 24.83 6.8 44.2 78 3.2 37.8
04:25 1012 29.88 841 24.83 6.8 44.2 77 3 37.4
04:30 1012 29.88 841 24.83 6.7 44.1 77 3 37.3
04:35 1012 29.88 841 24.83 6.7 44.1 77 3 37.5
04:40 1012 29.88 841 24.83 6.7 44.1 77 3 37.4
04:45 1012 29.88 841 24.83 6.7 44 78 3.1 37.5
04:50 1012 29.88 841 24.83 6.7 44 78 3.1 37.7
04:55 1012 29.88 841 24.83 6.6 43.9 78 3.1 37.5
05:00 1012 29.88 841 24.83 6.6 43.9 78 3 37.5
05:05 1012 29.88 841 24.83 6.6 43.9 77 2.9 37.2
05:10 1012 29.88 841 24.83 6.7 44.1 75 2.7 36.8
05:15 1012 29.88 841 24.83 6.8 44.2 74 2.5 36.5
05:20 1012 29.88 841 24.83 6.8 44.3 75 2.7 36.9
05:25 1012 29.88 841 24.83 6.8 44.2 74 2.6 36.6
05:30 1012 29.88 841 24.83 6.8 44.2 76 2.8 37
05:35 1012 29.88 841 24.83 6.8 44.3 75 2.7 36.9
05:40 1012 29.88 841 24.83 6.9 44.4 75 2.7 36.8
05:45 1012 29.88 841 24.83 6.9 44.5 74 2.7 36.9
05:50 1012 29.88 842 24.86 7 44.6 74 2.7 36.8
05:55 1012 29.88 842 24.86 7.1 44.7 73 2.6 36.6
06:00 1012 29.88 842 24.86 7.2 44.9 74 2.8 37.1
06:05 1012 29.88 842 24.86 7.1 44.9 73 2.7 36.8
06:10 1012 29.88 842 24.86 7.1 44.9 73 2.6 36.7
06:15 1012 29.88 842 24.86 7.1 44.8 73 2.7 36.9
06:20 1013 29.91 842 24.86 7.2 44.9 75 3 37.3
06:25 1013 29.91 842 24.86 7.2 44.9 74 2.9 37.2
06:30 1013 29.91 842 24.86 7.2 45 71 2.4 36.3
06:35 1013 29.91 842 24.86 7.3 45.1 71 2.3 36.2
06:40 1013 29.91 842 24.86 7.3 45.1 71 2.3 36.1
06:45 1013 29.91 842 24.86 7.3 45.2 71 2.4 36.4
06:50 1013 29.91 842 24.86 7.3 45.1 71 2.4 36.4
06:55 1013 29.91 842 24.86 7.2 45 71 2.4 36.4
07:00 1013 29.91 842 24.86 7.3 45.1 71 2.5 36.4
07:05 1013 29.91 842 24.86 7.4 45.3 71 2.4 36.4
07:10 1013 29.91 842 24.86 7.4 45.4 70 2.3 36.2
07:15 1013 29.91 842 24.86 7.5 45.5 68 2.1 35.8
07:20 1013 29.91 842 24.86 7.5 45.5 69 2.2 36
07:25 1013 29.91 842 24.86 7.5 45.6 69 2.2 35.9
07:30 1013 29.91 842 24.86 7.6 45.6 70 2.5 36.5
07:35 1013 29.91 842 24.86 7.6 45.7 70 2.5 36.5
07:40 1013 29.91 842 24.86 7.6 45.7 70 2.5 36.4
07:45 1013 29.91 842 24.86 7.7 45.8 69 2.4 36.3
07:50 1013 29.91 842 24.86 7.8 46 68 2.3 36.2
07:55 1013 29.91 842 24.86 7.8 46.1 69 2.4 36.4
08:00 1013 29.91 842 24.86 7.9 46.3 68 2.4 36.3
08:05 1013 29.91 843 24.89 8 46.4 67 2.4 36.3
08:10 1013 29.91 843 24.89 8.1 46.6 67 2.3 36.2
08:15 1013 29.91 843 24.89 8.2 46.8 66 2.2 36
08:20 1013 29.91 843 24.89 8.3 46.9 65 2.1 35.7
08:25 1013 29.91 843 24.89 8.4 47.1 66 2.4 36.4
08:30 1013 29.91 843 24.89 8.5 47.4 64 2.2 36
08:35 1013 29.91 843 24.89 8.7 47.7 61 1.7 35.1
08:40 1013 29.91 843 24.89 8.8 47.8 61 1.6 34.9
08:45 1014 29.94 843 24.89 8.8 47.9 60 1.6 34.9
08:50 1013 29.91 843 24.89 8.9 47.9 59 1.2 34.2
08:55 1014 29.94 843 24.89 9 48.1 57 1.1 33.9
09:00 1013 29.91 843 24.89 9.1 48.3 57 1 33.8
09:05 1013 29.91 843 24.89 9.2 48.5 54 0.4 32.8
09:10 1013 29.91 843 24.89 9.3 48.8 56 1 33.8
09:15 1013 29.91 843 24.89 9.6 49.3 55 0.9 33.7
09:20 1013 29.91 843 24.89 9.9 49.7 52 0.5 32.9
09:25 1013 29.91 843 24.89 9.8 49.6 54 0.9 33.7
09:30 1013 29.91 843 24.89 9.9 49.7 53 0.7 33.2
09:35 1013 29.91 843 24.89 10 50.1 51 0.4 32.7
09:40 1013 29.91 843 24.89 10.1 50.3 52 0.8 33.4
09:45 1013 29.91 843 24.89 10.4 50.7 51 0.8 33.5
09:50 1013 29.91 843 24.89 10.4 50.8 51 0.8 33.5
09:55 1013 29.91 843 24.89 10.7 51.3 49 0.5 32.9
10:00 1013 29.91 843 24.89 10.8 51.5 49 0.6 33.1
10:05 1013 29.91 843 24.89 11 51.8 48 0.4 32.7
10:10 1013 29.91 843 24.89 11.1 52.1 48 0.5 32.9
10:15 1013 29.91 843 24.89 11.4 52.5 47 0.5 32.9
10:20 1013 29.91 843 24.89 11.2 52.1 48 0.5 32.9
10:25 1013 29.91 843 24.89 11.1 52 47 0.4 32.7
10:30 1014 29.94 843 24.89 11.2 52.1 46 0.1 32.2
10:35 1014 29.94 843 24.89 11.2 52.2 48 0.6 33
10:40 1014 29.94 843 24.89 11 51.9 48 0.6 33
10:45 1014 29.94 843 24.89 10.7 51.2 51 0.9 33.7
10:50 1014 29.94 843 24.89 11 51.7 49 0.6 33.1
10:55 1014 29.94 843 24.89 11.5 52.8 49 1.1 34
11:00 1014 29.94 843 24.89 11.9 53.5 47 0.9 33.6
11:05 1014 29.94 843 24.89 11.8 53.2 46 0.7 33.2
11:10 1014 29.94 843 24.89 11.4 52.5 48 0.9 33.6
11:15 1014 29.94 843 24.89 11.7 53 47 0.8 33.4
11:20 1014 29.94 843 24.89 11.8 53.3 45 0.3 32.5
11:25 1014 29.94 843 24.89 11.7 53 47 0.7 33.3
11:30 1014 29.94 843 24.89 11.7 53 47 0.9 33.7
11:35 1014 29.94 843 24.89 11.6 52.8 46 0.4 32.8
11:40 1014 29.94 843 24.89 11.6 52.8 47 0.8 33.5
11:45 1014 29.94 843 24.89 11.3 52.3 49 0.9 33.6
11:50 1014 29.94 843 24.89 11.2 52.1 48 0.7 33.3
11:55 1014 29.94 843 24.89 11.3 52.4 48 0.6 33.2
12:00 1014 29.94 843 24.89 11.9 53.4 48 1.3 34.3
12:05 1014 29.94 843 24.89 11.8 53.3 45 0.5 32.8
12:10 1014 29.94 843 24.89 11.4 52.6 45 0.1 32.1
12:15 1014 29.94 843 24.89 11.3 52.4 47 0.5 32.8
12:20 1014 29.94 843 24.89 11.2 52.1 49 0.8 33.4
12:25 1014 29.94 843 24.89 11.2 52.1 47 0.4 32.7
12:30 1014 29.94 843 24.89 11.2 52.1 47 0.5 32.8
12:35 1014 29.94 843 24.89 11.1 52 48 0.5 33
12:40 1014 29.94 843 24.89 11.1 52 48 0.6 33.1
12:45 1014 29.94 843 24.89 11.1 52 48 0.6 33.1
12:50 1014 29.94 843 24.89 11.3 52.3 48 0.8 33.4
12:55 1014 29.94 843 24.89 11.3 52.3 48 0.8 33.5
13:00 1014 29.94 843 24.89 11.2 52.2 48 0.6 33.1
13:05 1014 29.94 843 24.89 11.7 53 46 0.4 32.8
13:10 1014 29.94 843 24.89 11.7 53 46 0.4 32.8
13:15 1014 29.94 843 24.89 11.8 53.2 45 0.4 32.7
13:20 1014 29.94 843 24.89 11.9 53.4 44 -0.1 31.9
13:25 1014 29.94 843 24.89 11.9 53.4 44 0.2 32.3
13:30 1014 29.94 843 24.89 12 53.5 44 0 32.1
13:35 1014 29.94 843 24.89 11.7 53 43 -0.4 31.2
13:40 1014 29.94 843 24.89 11.6 52.9 42 -0.7 30.7
13:45 1014 29.94 843 24.89 11.6 52.8 43 -0.6 30.9
13:50 1014 29.94 843 24.89 11.7 53 42 -0.7 30.8
13:55 1014 29.94 843 24.89 12 53.6 40 -1.1 30
14:00 1014 29.94 843 24.89 12.3 54.1 39 -1.2 29.9
14:05 1014 29.94 843 24.89 12.6 54.7 37 -1.6 29.2
14:10 1014 29.94 843 24.89 12.5 54.6 38 -1.3 29.6
14:15 1014 29.94 843 24.89 12.9 55.3 37 -1.2 29.8
14:20 1014 29.94 843 24.89 13 55.3 36 -1.7 29
14:25 1014 29.94 843 24.89 13.1 55.5 36 -1.6 29.2
14:30 1014 29.94 843 24.89 13.3 56 36 -1.5 29.3
14:35 1014 29.94 843 24.89 13.4 56.2 37 -0.9 30.3
14:40 1014 29.94 843 24.89 13.4 56.1 37 -0.8 30.6
14:45 1014 29.94 843 24.89 13.2 55.8 37 -1.2 29.9
14:50 1014 29.94 843 24.89 13 55.4 38 -1 30.2
14:55 1014 29.94 843 24.89 13.1 55.5 37 -1.3 29.7
15:00 1014 29.94 843 24.89 13.2 55.8 37 -1 30.3
15:05 1014 29.94 843 24.89 13 55.4 37 -1.1 30
15:10 1014 29.94 843 24.89 12.8 55.1 37 -1.3 29.6
15:15 1014 29.94 843 24.89 12.6 54.7 39 -0.9 30.3
15:20 1014 29.94 843 24.89 12.7 54.8 38 -1.1 30.1
15:25 1014 29.94 843 24.89 12.6 54.7 42 0 32.1
15:30 1014 29.94 843 24.89 12.8 55 39 -0.8 30.5
15:35 1014 29.94 843 24.89 12.9 55.1 39 -0.7 30.7
15:40 1014 29.94 843 24.89 13.2 55.7 37 -0.9 30.3
15:45 1014 29.94 843 24.89 13.4 56.2 38 -0.6 30.9
15:50 1014 29.94 843 24.89 13.3 55.9 38 -0.6 31
15:55 1014 29.94 844 24.92 13.1 55.6 38 -0.7 30.7
16:00 1014 29.94 844 24.92 13 55.3 37 -1.2 29.9
16:05 1014 29.94 844 24.92 12.7 54.9 40 -0.4 31.2
16:10 1014 29.94 844 24.92 12.9 55.1 43 0.5 33
16:15 1014 29.94 844 24.92 12.9 55.1 44 0.9 33.6
16:20 1015 29.97 844 24.92 12.6 54.6 43 0.3 32.5
16:25 1015 29.97 844 24.92 12.5 54.5 43 0.4 32.8
16:30 1015 29.97 844 24.92 12.8 55 43 0.5 32.9
16:35 1015 29.97 844 24.92 12.8 55 42 0.2 32.3
16:40 1015 29.97 844 24.92 12.7 54.9 42 0.3 32.5
16:45 1015 29.97 844 24.92 12.9 55.3 38 -1 30.2
16:50 1015 29.97 844 24.92 13.4 56.2 37 -1.1 30.1
16:55 1015 29.97 844 24.92 13.7 56.6 36 -1 30.3
17:00 1015 29.97 844 24.92 13.5 56.3 35 -1.4 29.5
17:05 1015 29.97 844 24.92 13.5 56.3 35 -1.4 29.5
17:10 1014 29.94 844 24.92 13.6 56.5 36 -1.2 29.9
17:15 1014 29.94 844 24.92 13.9 56.9 35 -1.2 29.8
17:20 1014 29.94 844 24.92 14 57.2 33 -2.1 28.3
17:25 1014 29.94 844 24.92 14.1 57.3 33 -2.1 28.3
17:30 1014 29.94 844 24.92 13.7 56.7 33 -2.1 28.2
17:35 1015 29.97 844 24.92 13.6 56.5 35 -1.5 29.3
17:40 1015 29.97 844 24.92 13.6 56.6 37 -0.7 30.8
17:45 1015 29.97 844 24.92 13.7 56.6 36 -1 30.2
17:50 1015 29.97 844 24.92 13.5 56.4 36 -1.3 29.6
17:55 1015 29.97 844 24.92 13.4 56 36 -1.4 29.5
18:00 1015 29.97 844 24.92 13 55.4 37 -1.1 29.9
18:05 1015 29.97 844 24.92 13 55.3 37 -1.2 29.9
18:10 1015 29.97 844 24.92 12.8 55 37 -1.3 29.6
18:15 1015 29.97 844 24.92 12.6 54.7 38 -1.1 30
18:20 1015 29.97 844 24.92 12.4 54.3 38 -1.5 29.3
18:25 1015 29.97 844 24.92 12.3 54.1 38 -1.7 28.9
18:30 1015 29.97 844 24.92 12.2 53.9 39 -1.2 29.8
18:35 1015 29.97 844 24.92 12.2 53.9 41 -0.7 30.7
18:40 1015 29.97 844 24.92 12.2 53.9 41 -0.6 30.9
18:45 1015 29.97 844 24.92 12.2 53.9 42 -0.4 31.3
18:50 1015 29.97 844 24.92 12.1 53.8 42 -0.5 31.2
18:55 1015 29.97 844 24.92 12 53.6 41 -0.8 30.6
19:00 1015 29.97 844 24.92 12 53.6 41 -0.8 30.5
19:05 1015 29.97 845 24.95 11.9 53.5 39 -1.6 29.2
19:10 1015 29.97 845 24.95 11.8 53.3 39 -1.5 29.3
19:15 1015 29.97 845 24.95 11.7 53.1 41 -1.1 30
19:20 1015 29.97 845 24.95 11.6 52.9 41 -1.3 29.7
19:25 1016 30 845 24.95 11.5 52.7 40 -1.7 29
19:30 1016 30 845 24.95 11.4 52.4 39 -1.9 28.6
19:35 1016 30 845 24.95 11.3 52.3 40 -1.9 28.5
19:40 1016 30 845 24.95 11.2 52.2 40 -1.7 28.9
19:45 1016 30 845 24.95 11.1 52 40 -1.9 28.6
19:50 1016 30 845 24.95 11 51.9 41 -1.8 28.8
19:55 1016 30 845 24.95 10.9 51.7 41 -1.6 29.1
20:00 1016 30 845 24.95 10.8 51.5 43 -1.2 29.9
20:05 1016 30 845 24.95 10.7 51.2 44 -1.2 29.9
20:10 1016 30 845 24.95 10.6 51 44 -1 30.1
20:15 1016 30 845 24.95 10.5 50.9 45 -1 30.1
20:20 1016 30 845 24.95 10.4 50.8 45 -1 30.2
20:25 1016 30 845 24.95 10.3 50.6 46 -0.8 30.5
20:30 1016 30 845 24.95 10.3 50.5 46 -0.8 30.5
20:35 1016 30 845 24.95 10.2 50.4 46 -0.9 30.5
20:40 1016 30 845 24.95 10.1 50.2 46 -1 30.2
20:45 1016 30 846 24.98 10 49.9 47 -0.9 30.4
20:50 1016 30 846 24.98 9.9 49.7 47 -0.9 30.4
20:55 1016 30 846 24.98 9.8 49.6 46 -1.1 30
21:00 1016 30 846 24.98 9.7 49.5 47 -1 30.2
21:05 1017 30.03 846 24.98 9.7 49.4 47 -1.1 30
21:10 1017 30.03 846 24.98 9.6 49.3 47 -1 30.1
21:15 1017 30.03 846 24.98 9.5 49.1 48 -1 30.2
21:20 1017 30.03 846 24.98 9.5 49.1 48 -1.1 30.1
21:25 1017 30.03 846 24.98 9.5 49 48 -1 30.3
21:30 1017 30.03 846 24.98 9.4 49 46 -1.6 29.2
21:35 1017 30.03 846 24.98 9.4 48.9 46 -1.6 29.1
21:40 1017 30.03 846 24.98 9.4 49 46 -1.7 28.9
21:45 1017 30.03 846 24.98 9.5 49 45 -1.7 28.9
21:50 1017 30.03 846 24.98 9.4 48.9 46 -1.7 29
21:55 1017 30.03 846 24.98 9.3 48.7 46 -1.7 28.9
22:00 1017 30.03 846 24.98 9.2 48.6 46 -1.8 28.7
22:05 1017 30.03 846 24.98 9.2 48.6 46 -1.7 28.9
22:10 1017 30.03 846 24.98 9.2 48.5 47 -1.5 29.2
22:15 1017 30.03 846 24.98 9.1 48.3 48 -1.4 29.5
22:20 1017 30.03 846 24.98 9 48.2 48 -1.4 29.5
22:25 1017 30.03 846 24.98 8.9 48.1 48 -1.3 29.6
22:30 1017 30.03 846 24.98 8.9 48.1 49 -1.2 29.8
22:35 1017 30.03 846 24.98 8.9 48 49 -1.1 30
22:40 1017 30.03 846 24.98 8.8 47.9 49 -1.3 29.7
22:45 1017 30.03 846 24.98 8.8 47.8 49 -1.3 29.7
22:50 1017 30.03 846 24.98 8.7 47.6 49 -1.4 29.4
22:55 1017 30.03 846 24.98 8.6 47.5 49 -1.4 29.4
23:00 1017 30.03 846 24.98 8.5 47.3 50 -1.3 29.6
23:05 1017 30.03 846 24.98 8.4 47.2 50 -1.4 29.5
23:10 1017 30.03 846 24.98 8.4 47.1 50 -1.4 29.5
23:15 1017 30.03 846 24.98 8.4 47 50 -1.3 29.6
23:20 1017 30.03 846 24.98 8.3 46.9 51 -1.4 29.6
23:25 1017 30.03 846 24.98 8.2 46.8 52 -1.1 30
23:30 1017 30.03 847 25.01 8 46.4 56 -0.3 31.5
23:35 1017 30.03 847 25.01 7.5 45.4 58 -0.2 31.6
23:40 1017 30.03 847 25.01 7.3 45.1 57 -0.6 30.9
23:45 1017 30.03 847 25.01 7.3 45.2 58 -0.4 31.2
23:50 1017 30.03 847 25.01 7.3 45.1 58 -0.4 31.2
23:55 1017 30.03 847 25.01 7.2 45 59 -0.2 31.6
24:00 1017 30.03 847 25.01 7.1 44.7 59 -0.4 31.3